createdAt,value
2023-09-23T00:00:14.471Z,52102.38
2023-09-23T00:02:48.038Z,52106.44
2023-09-23T00:05:17.447Z,52124.75
2023-09-23T00:07:44.372Z,52092.22
2023-09-23T00:10:12.107Z,52116.63
2023-09-23T00:12:41.829Z,52098.31
2023-09-23T00:15:09.110Z,52106.44
2023-09-23T00:17:39.257Z,52130.88
2023-09-23T00:20:17.679Z,52128.81
2023-09-23T00:22:47.490Z,52102.38
2023-09-23T00:25:20.336Z,52120.69
2023-09-23T00:27:47.301Z,52139.00
2023-09-23T00:30:14.112Z,52120.69
2023-09-23T00:32:40.863Z,52073.91
2023-09-23T00:35:08.192Z,52098.31
2023-09-23T00:37:35.195Z,52143.06
2023-09-23T00:40:02.030Z,52122.72
2023-09-23T00:42:28.984Z,52112.56
2023-09-23T00:44:55.445Z,52130.88
2023-09-23T00:47:21.876Z,52149.19
2023-09-23T00:49:48.713Z,52134.94
2023-09-23T00:52:16.508Z,52157.31
2023-09-23T00:54:43.974Z,52147.13
2023-09-23T00:57:10.974Z,52175.63
2023-09-23T00:59:38.210Z,52149.19
2023-09-23T01:02:05.779Z,52198.00
2023-09-23T01:04:32.656Z,52189.88
2023-09-23T01:07:02.051Z,52169.53
2023-09-23T01:09:30.956Z,52183.75
2023-09-23T01:11:57.742Z,52206.16
2023-09-23T01:14:24.176Z,52204.13
2023-09-23T01:16:52.430Z,52244.81
2023-09-23T01:19:26.847Z,52202.06
2023-09-23T01:21:54.635Z,52232.59
2023-09-23T01:24:21.097Z,52191.91
2023-09-23T01:26:52.156Z,52222.41
2023-09-23T01:29:23.474Z,52204.13
2023-09-23T01:32:05.117Z,52216.31
2023-09-23T01:34:31.626Z,52240.75
2023-09-23T01:36:58.062Z,52214.28
2023-09-23T01:39:24.407Z,52281.44
2023-09-23T01:41:55.174Z,52242.78
2023-09-23T01:44:21.876Z,52242.78
2023-09-23T01:46:48.638Z,52220.38
2023-09-23T01:49:17.363Z,52232.59
2023-09-23T01:51:45.449Z,52214.28
2023-09-23T01:54:17.278Z,52277.34
2023-09-23T01:56:44.624Z,52252.94
2023-09-23T01:59:13.195Z,52216.31
2023-09-23T02:01:42.701Z,52252.94
2023-09-23T02:04:09.377Z,52250.91
2023-09-23T02:06:44.130Z,52226.50
2023-09-23T02:09:10.873Z,52250.91
2023-09-23T02:11:38.305Z,52250.91
2023-09-23T02:14:07.851Z,52236.66
2023-09-23T02:16:34.910Z,52267.19
2023-09-23T02:19:01.753Z,52261.09
2023-09-23T02:21:28.355Z,52283.47
2023-09-23T02:23:57.659Z,52252.94
2023-09-23T02:26:25.126Z,52252.94
2023-09-23T02:28:51.612Z,52248.88
2023-09-23T02:31:18.249Z,52250.91
2023-09-23T02:33:44.753Z,52299.75
2023-09-23T02:36:15.122Z,52267.19
2023-09-23T02:38:43.891Z,52275.31
2023-09-23T02:41:10.926Z,52295.66
2023-09-23T02:43:38.705Z,52279.41
2023-09-23T02:46:06.470Z,52252.94
2023-09-23T02:48:34.223Z,52250.91
2023-09-23T02:51:02.332Z,52238.69
2023-09-23T02:53:28.777Z,52232.59
2023-09-23T02:56:05.952Z,52218.34
2023-09-23T02:58:32.361Z,52214.28
2023-09-23T03:00:58.843Z,52193.94
2023-09-23T03:03:25.818Z,52218.34
2023-09-23T03:05:56.700Z,52198.00
2023-09-23T03:08:26.346Z,52177.66
2023-09-23T03:10:56.095Z,52177.66
2023-09-23T03:13:25.066Z,52141.03
2023-09-23T03:15:53.962Z,52155.28
2023-09-23T03:18:29.692Z,52181.72
2023-09-23T03:20:56.536Z,52179.69
2023-09-23T03:23:24.381Z,52145.09
2023-09-23T03:25:53.870Z,52149.19
2023-09-23T03:28:20.320Z,52191.91
2023-09-23T03:30:49.552Z,52159.34
2023-09-23T03:33:19.876Z,52187.84
2023-09-23T03:35:46.682Z,52128.81
2023-09-23T03:38:13.292Z,52165.44
2023-09-23T03:40:40.043Z,52171.56
2023-09-23T03:43:06.624Z,52159.34
2023-09-23T03:45:36.436Z,52159.34
2023-09-23T03:48:03.770Z,52145.09
2023-09-23T03:50:31.988Z,52124.75
2023-09-23T03:52:59.283Z,52175.63
2023-09-23T03:55:25.912Z,52161.38
2023-09-23T03:57:52.330Z,52161.38
2023-09-23T04:00:19.153Z,52191.91
2023-09-23T04:02:48.979Z,52165.44
2023-09-23T04:05:16.066Z,52191.91
2023-09-23T04:07:47.456Z,52165.44
2023-09-23T04:10:13.916Z,52177.66
2023-09-23T04:12:42.403Z,52155.28
2023-09-23T04:15:09.070Z,52171.56
2023-09-23T04:17:35.711Z,52183.75
2023-09-23T04:20:05.095Z,52181.72
2023-09-23T04:22:31.541Z,52147.13
2023-09-23T04:24:57.889Z,52183.75
2023-09-23T04:27:24.276Z,52179.69
2023-09-23T04:29:51.540Z,52187.84
2023-09-23T04:32:18.714Z,52159.34
2023-09-23T04:34:47.031Z,52191.91
2023-09-23T04:37:13.778Z,52183.75
2023-09-23T04:39:40.118Z,52143.06
2023-09-23T04:42:06.552Z,52159.34
2023-09-23T04:44:33.403Z,52189.88
2023-09-23T04:46:59.927Z,52155.28
2023-09-23T04:49:26.380Z,52143.06
2023-09-23T04:51:53.839Z,52191.91
2023-09-23T04:54:22.103Z,52183.75
2023-09-23T04:56:48.951Z,52175.63
2023-09-23T04:59:15.401Z,52165.44
2023-09-23T05:01:41.842Z,52153.25
2023-09-23T05:04:09.357Z,52159.34
2023-09-23T05:06:37.320Z,52155.28
2023-09-23T05:09:03.919Z,52193.94
2023-09-23T05:11:30.275Z,52191.91
2023-09-23T05:13:56.723Z,52189.88
2023-09-23T05:16:23.699Z,52157.31
2023-09-23T05:18:50.501Z,52161.38
2023-09-23T05:21:19.923Z,52175.63
2023-09-23T05:23:50.048Z,52173.59
2023-09-23T05:26:17.465Z,52151.22
2023-09-23T05:28:44.604Z,52157.31
2023-09-23T05:31:14.783Z,52155.28
2023-09-23T05:33:42.224Z,52147.13
2023-09-23T05:36:09.021Z,52157.31
2023-09-23T05:38:38.408Z,52143.06
2023-09-23T05:41:04.879Z,52141.03
2023-09-23T05:43:31.387Z,52161.38
2023-09-23T05:45:57.794Z,52161.38
2023-09-23T05:48:24.506Z,52149.19
2023-09-23T05:50:52.189Z,52161.38
2023-09-23T05:53:18.573Z,52169.53
2023-09-23T05:55:45.249Z,52163.41
2023-09-23T05:58:12.214Z,52149.19
2023-09-23T06:00:38.627Z,52173.59
2023-09-23T06:03:05.155Z,52132.91
2023-09-23T06:05:32.030Z,52122.72
2023-09-23T06:07:58.486Z,52136.97
2023-09-23T06:10:24.915Z,52130.88
2023-09-23T06:12:51.263Z,52126.78
2023-09-23T06:15:17.770Z,52116.63
2023-09-23T06:17:44.228Z,52086.09
2023-09-23T06:20:11.227Z,52073.91
2023-09-23T06:22:37.708Z,52147.13
2023-09-23T06:25:04.642Z,52071.84
2023-09-23T06:27:31.524Z,52077.97
2023-09-23T06:29:57.928Z,52057.63
2023-09-23T06:32:24.416Z,52080.00
2023-09-23T06:34:50.952Z,52098.31
2023-09-23T06:37:17.368Z,52090.16
2023-09-23T06:39:43.996Z,52065.75
2023-09-23T06:42:10.478Z,52051.50
2023-09-23T06:44:36.920Z,52055.59
2023-09-23T06:47:03.847Z,52065.75
2023-09-23T06:49:30.332Z,52075.94
2023-09-23T06:51:56.827Z,52067.78
2023-09-23T06:54:23.221Z,52051.50
2023-09-23T06:56:49.720Z,52086.09
2023-09-23T06:59:16.115Z,52082.03
2023-09-23T07:01:42.939Z,52092.22
2023-09-23T07:04:10.167Z,52118.66
2023-09-23T07:06:36.807Z,52132.91
2023-09-23T07:09:05.920Z,52116.63
2023-09-23T07:11:32.856Z,52139.00
2023-09-23T07:14:01.469Z,52136.97
2023-09-23T07:16:28.309Z,52104.41
2023-09-23T07:18:54.703Z,52122.72
2023-09-23T07:21:21.114Z,52098.31
2023-09-23T07:23:47.647Z,52100.34
2023-09-23T07:26:21.866Z,52112.56
2023-09-23T07:28:51.246Z,52108.47
2023-09-23T07:31:18.587Z,52126.78
2023-09-23T07:33:45.707Z,52130.88
2023-09-23T07:36:13.048Z,52106.44
2023-09-23T07:38:42.962Z,52106.44
2023-09-23T07:41:09.443Z,52045.41
2023-09-23T07:43:35.953Z,52096.28
2023-09-23T07:46:02.358Z,52071.84
2023-09-23T07:48:28.826Z,52073.91
2023-09-23T07:50:55.714Z,52112.56
2023-09-23T07:53:23.119Z,52055.59
2023-09-23T07:55:50.125Z,52057.63
2023-09-23T07:58:16.736Z,52051.50
2023-09-23T08:00:43.102Z,52084.06
2023-09-23T08:03:09.551Z,52051.50
2023-09-23T08:05:36.050Z,52047.44
2023-09-23T08:08:02.477Z,52033.19
2023-09-23T08:10:28.915Z,52065.75
2023-09-23T08:12:55.292Z,52045.41
2023-09-23T08:15:21.765Z,52053.53
2023-09-23T08:17:48.234Z,52059.66
2023-09-23T08:20:25.260Z,52033.19
2023-09-23T08:22:51.889Z,52053.53
2023-09-23T08:25:21.087Z,52059.66
2023-09-23T08:27:47.784Z,52061.69
2023-09-23T08:30:17.503Z,52023.03
2023-09-23T08:32:43.910Z,52039.31
2023-09-23T08:35:10.457Z,52045.41
2023-09-23T08:37:36.956Z,52029.13
2023-09-23T08:40:12.821Z,52002.69
2023-09-23T08:42:39.918Z,51988.44
2023-09-23T08:45:07.854Z,51957.91
2023-09-23T08:47:35.557Z,51986.41
2023-09-23T08:50:02.059Z,51970.13
2023-09-23T08:52:28.447Z,52016.94
2023-09-23T08:54:55.804Z,52029.13
2023-09-23T08:57:22.155Z,51986.41
2023-09-23T08:59:48.518Z,51982.34
2023-09-23T09:02:18.133Z,51982.34
2023-09-23T09:04:44.517Z,51974.19
2023-09-23T09:07:10.952Z,52041.34
2023-09-23T09:09:41.300Z,52018.97
2023-09-23T09:12:09.030Z,52014.88
2023-09-23T09:14:35.581Z,52067.78
2023-09-23T09:17:02.156Z,52025.06
2023-09-23T09:19:28.596Z,52004.72
2023-09-23T09:21:57.519Z,52004.72
2023-09-23T09:24:25.198Z,51972.16
2023-09-23T09:26:51.617Z,51966.06
2023-09-23T09:29:18.038Z,51966.06
2023-09-23T09:31:45.548Z,51962.00
2023-09-23T09:34:13.913Z,51998.63
2023-09-23T09:36:40.448Z,51982.34
2023-09-23T09:39:09.107Z,51980.31
2023-09-23T09:41:42.141Z,51976.22
2023-09-23T09:44:08.599Z,51959.97
2023-09-23T09:46:35.873Z,51962.00
2023-09-23T09:49:03.195Z,51982.34
2023-09-23T09:51:30.065Z,51931.47
2023-09-23T09:53:56.797Z,52000.66
2023-09-23T09:56:24.612Z,51964.03
2023-09-23T09:58:51.037Z,52018.97
2023-09-23T10:01:19.106Z,51986.41
2023-09-23T10:03:50.339Z,51990.47
2023-09-23T10:06:20.061Z,51986.41
2023-09-23T10:08:49.673Z,51994.53
2023-09-23T10:11:16.703Z,51913.16
2023-09-23T10:13:43.707Z,51925.38
2023-09-23T10:16:20.573Z,51909.09
2023-09-23T10:18:58.208Z,51911.13
2023-09-23T10:21:25.688Z,51964.03
2023-09-23T10:23:52.929Z,51945.72
2023-09-23T10:26:20.353Z,51962.00
2023-09-23T10:28:58.403Z,51992.50
2023-09-23T10:31:28.816Z,51947.75
2023-09-23T10:33:55.882Z,51974.19
2023-09-23T10:36:22.913Z,51984.38
2023-09-23T10:38:49.705Z,51984.38
2023-09-23T10:41:16.323Z,51982.34
2023-09-23T10:43:42.796Z,51959.97
2023-09-23T10:46:09.244Z,51949.78
2023-09-23T10:48:35.724Z,51984.38
2023-09-23T10:51:02.559Z,51996.59
2023-09-23T10:53:31.817Z,52008.78
2023-09-23T10:56:02.968Z,52012.84
2023-09-23T10:58:32.402Z,51972.16
2023-09-23T11:00:58.898Z,51949.78
2023-09-23T11:03:25.990Z,51968.09
2023-09-23T11:05:52.693Z,51945.72
2023-09-23T11:08:19.621Z,51980.31
2023-09-23T11:10:47.056Z,51978.28
2023-09-23T11:13:14.741Z,51972.16
2023-09-23T11:15:42.281Z,51955.88
2023-09-23T11:18:09.556Z,51990.47
2023-09-23T11:20:38.743Z,51962.00
2023-09-23T11:23:06.747Z,51996.59
2023-09-23T11:25:37.971Z,51974.19
2023-09-23T11:28:04.586Z,52018.97
2023-09-23T11:30:31.107Z,51970.13
2023-09-23T11:32:57.604Z,51939.63
2023-09-23T11:35:24.552Z,51945.72
2023-09-23T11:37:51.358Z,51966.06
2023-09-23T11:40:17.752Z,51953.84
2023-09-23T11:42:44.179Z,51945.72
2023-09-23T11:45:11.031Z,51953.84
2023-09-23T11:47:38.255Z,51966.06
2023-09-23T11:50:06.977Z,51955.88
2023-09-23T11:52:34.132Z,51931.47
2023-09-23T11:55:00.647Z,51945.72
2023-09-23T11:57:30.168Z,51868.41
2023-09-23T11:59:56.586Z,51862.31
2023-09-23T12:02:23.773Z,51876.53
2023-09-23T12:04:51.035Z,51844.00
2023-09-23T12:07:18.466Z,51813.47
2023-09-23T12:09:45.176Z,51805.34
2023-09-23T12:12:14.424Z,51758.53
2023-09-23T12:14:43.872Z,51815.50
2023-09-23T12:17:11.922Z,51795.16
2023-09-23T12:19:38.986Z,51841.97
2023-09-23T12:22:05.625Z,51774.81
2023-09-23T12:24:32.051Z,51752.44
2023-09-23T12:27:00.218Z,51695.47
2023-09-23T12:29:27.205Z,51723.97
2023-09-23T12:31:54.025Z,51701.56
2023-09-23T12:34:20.498Z,51683.28
2023-09-23T12:36:47.451Z,51701.56
2023-09-23T12:39:16.730Z,51687.34
2023-09-23T12:41:43.724Z,51748.38
2023-09-23T12:44:10.421Z,51732.09
2023-09-23T12:46:36.882Z,51752.44
2023-09-23T12:49:03.292Z,51734.13
2023-09-23T12:51:29.723Z,51697.50
2023-09-23T12:53:56.552Z,51709.72
2023-09-23T12:56:23.318Z,51740.22
2023-09-23T12:58:49.977Z,51750.41
2023-09-23T13:01:16.536Z,51742.28
2023-09-23T13:03:43.091Z,51793.13
2023-09-23T13:06:09.535Z,51774.81
2023-09-23T13:08:35.931Z,51734.13
2023-09-23T13:11:02.371Z,51734.13
2023-09-23T13:13:28.912Z,51697.50
2023-09-23T13:15:55.605Z,51707.69
2023-09-23T13:18:22.167Z,51662.94
2023-09-23T13:20:49.226Z,51656.81
2023-09-23T13:23:15.859Z,51628.34
2023-09-23T13:25:42.284Z,51630.38
2023-09-23T13:28:08.708Z,51642.59
2023-09-23T13:30:35.185Z,51681.22
2023-09-23T13:33:02.067Z,51636.47
2023-09-23T13:35:28.664Z,51671.06
2023-09-23T13:37:55.129Z,51671.06
2023-09-23T13:40:21.522Z,51646.66
2023-09-23T13:42:47.965Z,51667.00
2023-09-23T13:45:14.466Z,51760.56
2023-09-23T13:47:43.331Z,51744.31
2023-09-23T13:50:10.808Z,51776.84
2023-09-23T13:52:37.435Z,51805.34
2023-09-23T13:55:03.991Z,51801.25
2023-09-23T13:57:30.394Z,51833.81
2023-09-23T13:59:56.767Z,51803.31
2023-09-23T14:02:23.526Z,51825.69
2023-09-23T14:04:50.083Z,51876.53
2023-09-23T14:07:16.656Z,51766.69
2023-09-23T14:09:43.119Z,51768.72
2023-09-23T14:12:09.568Z,51756.50
2023-09-23T14:14:36.003Z,51776.84
2023-09-23T14:17:02.437Z,51837.88
2023-09-23T14:19:28.887Z,51839.91
2023-09-23T14:21:56.005Z,51833.81
2023-09-23T14:24:22.385Z,51856.19
2023-09-23T14:26:49.173Z,51844.00
2023-09-23T14:29:15.643Z,51858.22
2023-09-23T14:31:42.173Z,51898.91
2023-09-23T14:34:09.294Z,51876.53
2023-09-23T14:36:35.842Z,51868.41
2023-09-23T14:39:04.876Z,51856.19
2023-09-23T14:41:34.889Z,51878.56
2023-09-23T14:44:04.828Z,51874.50
2023-09-23T14:46:31.724Z,51892.81
2023-09-23T14:48:58.121Z,51862.31
2023-09-23T14:51:24.534Z,51888.75
2023-09-23T14:53:50.936Z,51856.19
2023-09-23T14:56:17.378Z,51896.88
2023-09-23T14:58:43.904Z,51858.22
2023-09-23T15:01:10.762Z,51882.66
2023-09-23T15:03:37.496Z,51876.53
2023-09-23T15:06:04.788Z,51915.19
2023-09-23T15:08:31.226Z,51933.50
2023-09-23T15:10:57.669Z,51868.41
2023-09-23T15:13:24.065Z,51793.13
2023-09-23T15:15:50.449Z,51787.03
2023-09-23T15:18:17.420Z,51805.34
2023-09-23T15:20:43.887Z,51823.66
2023-09-23T15:23:12.640Z,51721.94
2023-09-23T15:25:39.509Z,51744.31
2023-09-23T15:28:06.423Z,51689.38
2023-09-23T15:30:32.848Z,51723.97
2023-09-23T15:32:59.428Z,51701.56
2023-09-23T15:35:25.868Z,51738.19
2023-09-23T15:37:52.314Z,51736.16
2023-09-23T15:40:19.300Z,51697.50
2023-09-23T15:42:46.355Z,51740.22
2023-09-23T15:45:13.756Z,51748.38
2023-09-23T15:47:40.928Z,51778.88
2023-09-23T15:50:08.050Z,51809.41
2023-09-23T15:52:34.674Z,51856.19
2023-09-23T15:55:01.162Z,51829.75
2023-09-23T15:57:27.571Z,51852.13
2023-09-23T15:59:53.968Z,51864.34
2023-09-23T16:02:21.002Z,51870.44
2023-09-23T16:04:47.511Z,51896.88
2023-09-23T16:07:14.246Z,51888.75
2023-09-23T16:09:41.980Z,51896.88
2023-09-23T16:12:09.106Z,51896.88
2023-09-23T16:14:36.538Z,51890.78
2023-09-23T16:17:03.094Z,51915.19
2023-09-23T16:19:30.642Z,51911.13
2023-09-23T16:21:58.596Z,51892.81
2023-09-23T16:24:25.479Z,51890.78
2023-09-23T16:26:51.874Z,51894.84
2023-09-23T16:29:19.416Z,51886.72
2023-09-23T16:31:45.898Z,51905.03
2023-09-23T16:34:12.613Z,51933.50
2023-09-23T16:36:39.223Z,51923.34
2023-09-23T16:39:05.659Z,51951.81
2023-09-23T16:41:32.322Z,51917.22
2023-09-23T16:43:59.743Z,51927.41
2023-09-23T16:46:27.475Z,51907.06
2023-09-23T16:48:54.064Z,51953.84
2023-09-23T16:51:21.158Z,51959.97
2023-09-23T16:53:48.401Z,51972.16
2023-09-23T16:56:14.818Z,51941.66
2023-09-23T16:58:41.174Z,51959.97
2023-09-23T17:01:07.545Z,52014.88
2023-09-23T17:03:34.087Z,51996.59
2023-09-23T17:06:00.632Z,51992.50
2023-09-23T17:08:28.156Z,52008.78
2023-09-23T17:10:54.563Z,51998.63
2023-09-23T17:13:21.124Z,51992.50
2023-09-23T17:15:47.608Z,51982.34
2023-09-23T17:18:16.401Z,51990.47
2023-09-23T17:20:43.084Z,52025.06
2023-09-23T17:23:09.594Z,52018.97
2023-09-23T17:25:36.882Z,52008.78
2023-09-23T17:28:03.381Z,52025.06
2023-09-23T17:30:29.747Z,52053.53
2023-09-23T17:32:56.347Z,52043.38
2023-09-23T17:35:22.987Z,52037.28
2023-09-23T17:37:51.190Z,52090.16
2023-09-23T17:40:19.448Z,52069.81
2023-09-23T17:42:45.845Z,52061.69
2023-09-23T17:45:12.195Z,52100.34
2023-09-23T17:47:39.097Z,52094.25
2023-09-23T17:50:05.957Z,52122.72
2023-09-23T17:52:32.564Z,52071.84
2023-09-23T17:55:00.124Z,52096.28
2023-09-23T17:57:28.439Z,52118.66
2023-09-23T17:59:54.810Z,52106.44
2023-09-23T18:02:21.388Z,52094.25
2023-09-23T18:04:47.914Z,52134.94
2023-09-23T18:07:14.336Z,52157.31
2023-09-23T18:09:41.530Z,52122.72
2023-09-23T18:12:09.944Z,52139.00
2023-09-23T18:14:36.469Z,52132.91
2023-09-23T18:17:03.205Z,52118.66
2023-09-23T18:19:29.579Z,52147.13
2023-09-23T18:21:55.933Z,52169.53
2023-09-23T18:24:22.514Z,52163.41
2023-09-23T18:26:48.961Z,52187.84
2023-09-23T18:29:15.474Z,52151.22
2023-09-23T18:31:44.823Z,52149.19
2023-09-23T18:34:11.448Z,52141.03
2023-09-23T18:36:37.906Z,52171.56
2023-09-23T18:39:04.495Z,52169.53
2023-09-23T18:41:31.221Z,52134.94
2023-09-23T18:43:57.603Z,52179.69
2023-09-23T18:46:24.034Z,52200.03
2023-09-23T18:48:50.660Z,52173.59
2023-09-23T18:51:17.163Z,52143.06
2023-09-23T18:53:43.859Z,52206.16
2023-09-23T18:56:10.423Z,52191.91
2023-09-23T18:58:36.843Z,52167.50
2023-09-23T19:01:04.381Z,52175.63
2023-09-23T19:03:31.359Z,52195.97
2023-09-23T19:05:58.090Z,52171.56
2023-09-23T19:08:24.507Z,52200.03
2023-09-23T19:10:51.061Z,52191.91
2023-09-23T19:13:17.824Z,52206.16
2023-09-23T19:15:53.411Z,52218.34
2023-09-23T19:18:20.016Z,52236.66
2023-09-23T19:20:46.997Z,52208.19
2023-09-23T19:23:15.459Z,52198.00
2023-09-23T19:25:42.111Z,52234.63
2023-09-23T19:28:09.065Z,52191.91
2023-09-23T19:30:36.097Z,52206.16
2023-09-23T19:33:02.622Z,52254.97
2023-09-23T19:35:29.171Z,52252.94
2023-09-23T19:37:55.695Z,52220.38
2023-09-23T19:40:22.266Z,52226.50
2023-09-23T19:42:48.695Z,52240.75
2023-09-23T19:45:15.206Z,52224.47
2023-09-23T19:47:41.990Z,52273.28
2023-09-23T19:50:08.690Z,52259.03
2023-09-23T19:52:35.412Z,52234.63
2023-09-23T19:55:01.886Z,52254.97
2023-09-23T19:57:28.349Z,52248.88
2023-09-23T19:59:55.512Z,52254.97
2023-09-23T20:02:22.060Z,52242.78
2023-09-23T20:04:48.716Z,52267.19
2023-09-23T20:07:17.214Z,52297.72
2023-09-23T20:09:43.692Z,52279.41
2023-09-23T20:12:11.938Z,52279.41
2023-09-23T20:14:38.974Z,52281.44
2023-09-23T20:17:07.589Z,52279.41
2023-09-23T20:19:34.537Z,52293.63
2023-09-23T20:22:00.949Z,52305.84
2023-09-23T20:24:27.373Z,52283.47
2023-09-23T20:26:54.291Z,52297.72
2023-09-23T20:29:21.340Z,52275.31
2023-09-23T20:31:47.735Z,52281.44
2023-09-23T20:34:14.174Z,52289.56
2023-09-23T20:36:40.561Z,52299.75
2023-09-23T20:39:09.666Z,52326.19
2023-09-23T20:41:36.161Z,52271.25
2023-09-23T20:44:04.381Z,52289.56
2023-09-23T20:46:32.057Z,52311.94
2023-09-23T20:48:58.510Z,52318.06
2023-09-23T20:51:25.065Z,52291.59
2023-09-23T20:53:51.627Z,52303.81
2023-09-23T20:56:18.153Z,52297.72
2023-09-23T20:58:44.553Z,52293.63
2023-09-23T21:01:11.255Z,52322.13
2023-09-23T21:03:37.800Z,52338.41
2023-09-23T21:06:04.584Z,52305.84
2023-09-23T21:08:30.999Z,52311.94
2023-09-23T21:10:57.450Z,52326.19
2023-09-23T21:13:23.855Z,52309.91
2023-09-23T21:16:04.417Z,52299.75
2023-09-23T21:18:30.994Z,52309.91
2023-09-23T21:20:57.647Z,52289.56
2023-09-23T21:23:24.332Z,52326.19
2023-09-23T21:25:51.509Z,52303.81
2023-09-23T21:28:17.890Z,52309.91
2023-09-23T21:30:44.324Z,52324.16
2023-09-23T21:33:11.031Z,52305.84
2023-09-23T21:35:40.427Z,52342.47
2023-09-23T21:38:07.279Z,52301.78
2023-09-23T21:40:33.728Z,52311.94
2023-09-23T21:43:00.367Z,52311.94
2023-09-23T21:45:26.787Z,52309.91
2023-09-23T21:47:53.376Z,52322.13
2023-09-23T21:50:19.980Z,52334.34
2023-09-23T21:52:46.462Z,52311.94
2023-09-23T21:55:13.046Z,52334.34
2023-09-23T21:57:39.558Z,52318.06
2023-09-23T22:00:26.885Z,52311.94
2023-09-23T22:02:57.427Z,52354.69
2023-09-23T22:05:24.662Z,52328.22
2023-09-23T22:08:01.324Z,52342.47
2023-09-23T22:10:28.142Z,52334.34
2023-09-23T22:12:57.038Z,52344.50
2023-09-23T22:15:24.412Z,52285.50
2023-09-23T22:17:50.924Z,52301.78
2023-09-23T22:20:18.969Z,52326.19
2023-09-23T22:22:45.911Z,52303.81
2023-09-23T22:25:16.072Z,52318.06
2023-09-23T22:27:43.522Z,52320.09
2023-09-23T22:30:14.620Z,52338.41
2023-09-23T22:32:42.738Z,52330.25
2023-09-23T22:35:12.121Z,52313.97
2023-09-23T22:37:38.649Z,52299.75
2023-09-23T22:40:07.608Z,52350.59
2023-09-23T22:42:34.028Z,52324.16
2023-09-23T22:45:00.476Z,52336.38
2023-09-23T22:47:26.978Z,52338.41
2023-09-23T22:49:56.138Z,52350.59
2023-09-23T22:52:26.202Z,52373.00
2023-09-23T22:54:52.773Z,52364.84
2023-09-23T22:57:19.224Z,52377.06
2023-09-23T22:59:45.777Z,52366.88
2023-09-23T23:02:12.352Z,52352.66
2023-09-23T23:04:38.880Z,52326.19
2023-09-23T23:07:05.428Z,52377.06
2023-09-23T23:09:31.933Z,52342.47
2023-09-23T23:11:58.326Z,52340.44
2023-09-23T23:14:25.160Z,52373.00
2023-09-23T23:16:51.667Z,52346.53
2023-09-23T23:19:18.823Z,52389.28
2023-09-23T23:21:45.913Z,52342.47
2023-09-23T23:24:13.522Z,52346.53
2023-09-23T23:26:40.034Z,52383.16
2023-09-23T23:29:06.681Z,52362.81
2023-09-23T23:31:35.878Z,52299.75
2023-09-23T23:34:02.420Z,52346.53
2023-09-23T23:36:28.805Z,52362.81
2023-09-23T23:38:55.392Z,52381.13
2023-09-23T23:41:24.238Z,52379.09
2023-09-23T23:43:50.812Z,52393.34
2023-09-23T23:46:18.922Z,52366.88
2023-09-23T23:48:47.980Z,52366.88
2023-09-23T23:51:14.454Z,52373.00
2023-09-23T23:53:40.902Z,52336.38
2023-09-23T23:56:07.424Z,52375.03
2023-09-23T23:58:34.035Z,52385.19
